createdAt,value
2019-05-30T00:02:02.950Z,2.2
2019-05-30T00:07:02.838Z,2.2
2019-05-30T00:12:02.928Z,2.0
2019-05-30T00:22:03.704Z,1.8
2019-05-30T00:27:02.831Z,1.8
2019-05-30T00:32:01.925Z,1.8
2019-05-30T00:37:02.462Z,1.7
2019-05-30T00:52:02.955Z,1.7
2019-05-30T01:02:02.472Z,1.6
2019-05-30T01:07:01.508Z,1.5
2019-05-30T01:12:01.474Z,1.4
2019-05-30T01:17:01.479Z,1.5
2019-05-30T01:22:01.722Z,1.5
2019-05-30T01:27:01.745Z,1.6
2019-05-30T01:32:01.827Z,1.6
2019-05-30T01:37:01.897Z,1.5
2019-05-30T01:42:02.185Z,1.5
2019-05-30T01:47:02.342Z,1.5
2019-05-30T01:52:07.056Z,1.6
2019-05-30T01:57:07.188Z,1.8
2019-05-30T02:03:02.825Z,2.0
2019-05-30T02:08:01.421Z,1.8
2019-05-30T02:13:01.539Z,1.8
2019-05-30T02:18:01.869Z,2.0
2019-05-30T02:23:09.122Z,2.0
2019-05-30T02:28:02.457Z,2.3
2019-05-30T02:33:07.098Z,2.5
2019-05-30T02:38:07.193Z,2.5
2019-05-30T02:43:06.985Z,2.4
2019-05-30T02:54:06.394Z,2.3
2019-05-30T02:59:05.932Z,2.4
2019-05-30T03:04:08.112Z,2.6
2019-05-30T03:14:06.937Z,3.0
2019-05-30T03:19:04.003Z,3.1
2019-05-30T03:24:07.554Z,2.9
2019-05-30T03:29:07.712Z,3.1
2019-05-30T03:34:25.190Z,2.9
2019-05-30T03:39:05.464Z,2.9
2019-05-30T03:44:01.521Z,2.8
2019-05-30T03:59:01.630Z,2.9
2019-05-30T04:04:01.548Z,2.9
2019-05-30T04:10:01.441Z,2.7
2019-05-30T04:15:01.529Z,2.8
2019-05-30T04:20:01.404Z,3.1
2019-05-30T04:25:01.546Z,3.2
2019-05-30T04:30:01.411Z,3.2
2019-05-30T04:40:01.411Z,3.5
2019-05-30T04:45:01.545Z,3.2
2019-05-30T04:50:01.392Z,3.0
2019-05-30T04:55:01.533Z,2.9
2019-05-30T05:00:01.410Z,2.7
2019-05-30T05:05:01.595Z,2.5
2019-05-30T05:10:01.422Z,2.5
2019-05-30T05:15:01.507Z,2.6
2019-05-30T05:20:01.415Z,2.9
2019-05-30T05:25:01.473Z,2.9
2019-05-30T05:30:01.439Z,3.1
2019-05-30T05:35:01.541Z,3.1
2019-05-30T05:40:01.450Z,3.0
2019-05-30T05:45:02.464Z,2.9
2019-05-30T05:51:01.402Z,2.9
2019-05-30T05:56:01.479Z,3.0
2019-05-30T06:01:01.405Z,3.0
2019-05-30T06:06:01.674Z,3.4
2019-05-30T06:11:01.407Z,3.4
2019-05-30T06:21:01.475Z,3.3
2019-05-30T06:31:01.529Z,3.7
2019-05-30T06:36:01.563Z,3.8
2019-05-30T06:41:01.399Z,3.9
2019-05-30T06:51:01.473Z,4.2
2019-05-30T06:56:01.482Z,4.4
2019-05-30T07:01:01.402Z,4.8
2019-05-30T07:06:03.346Z,5.2
2019-05-30T07:11:01.407Z,5.2
2019-05-30T07:16:01.549Z,5.4
2019-05-30T07:21:01.404Z,5.8
2019-05-30T07:26:04.095Z,6.0
2019-05-30T07:31:01.413Z,6.8
2019-05-30T07:36:01.476Z,7.3
2019-05-30T07:41:01.420Z,7.8
2019-05-30T07:51:01.520Z,9.0
2019-05-30T07:56:01.745Z,9.3
2019-05-30T08:01:01.402Z,9.9
2019-05-30T08:06:01.531Z,10.7
2019-05-30T08:11:10.620Z,11.0
2019-05-30T08:16:01.474Z,11.4
2019-05-30T08:21:01.377Z,12.1
2019-05-30T08:26:01.473Z,12.8
2019-05-30T08:31:01.413Z,13.4
2019-05-30T08:37:01.399Z,14.6
2019-05-30T08:42:01.408Z,14.8
2019-05-30T08:47:01.532Z,15.2
2019-05-30T08:52:01.400Z,15.1
2019-05-30T08:57:01.467Z,14.8
2019-05-30T09:02:01.409Z,14.5
2019-05-30T09:07:01.471Z,14.7
2019-05-30T09:12:01.410Z,14.9
2019-05-30T09:17:01.535Z,14.7
2019-05-30T09:22:01.412Z,15.4
2019-05-30T09:27:01.472Z,15.4
2019-05-30T09:32:01.427Z,15.4
2019-05-30T09:37:01.482Z,15.7
2019-05-30T09:42:01.412Z,16.0
2019-05-30T09:47:01.400Z,15.5
2019-05-30T09:57:01.537Z,15.9
2019-05-30T10:02:01.430Z,15.4
2019-05-30T10:07:01.477Z,15.4
2019-05-30T10:12:01.414Z,15.8
2019-05-30T10:22:01.733Z,16.4
2019-05-30T10:27:01.529Z,17.3
2019-05-30T10:32:01.402Z,18.0
2019-05-30T10:37:01.494Z,18.8
2019-05-30T10:42:01.405Z,19.6
2019-05-30T10:47:01.474Z,20.3
2019-05-30T10:52:01.472Z,20.4
2019-05-30T10:57:02.471Z,20.8
2019-05-30T11:02:01.416Z,21.3
2019-05-30T11:07:12.385Z,21.4
2019-05-30T11:12:01.397Z,21.4
2019-05-30T11:17:01.408Z,22.0
2019-05-30T11:22:01.411Z,22.4
2019-05-30T11:27:01.469Z,22.3
2019-05-30T11:32:01.431Z,22.7
2019-05-30T11:42:01.400Z,23.2
2019-05-30T11:47:01.507Z,23.2
2019-05-30T11:52:01.398Z,23.5
2019-05-30T11:57:01.471Z,23.1
2019-05-30T12:07:01.538Z,23.2
2019-05-30T12:17:06.552Z,23.2
2019-05-30T12:22:02.474Z,23.2
2019-05-30T12:27:06.615Z,23.2
2019-05-30T12:37:06.483Z,23.0
2019-05-30T12:42:06.542Z,22.7
2019-05-30T12:52:01.413Z,22.1
2019-05-30T12:57:02.475Z,21.9
2019-05-30T13:02:02.984Z,21.3
2019-05-30T13:07:01.671Z,21.0
2019-05-30T13:12:02.895Z,20.9
2019-05-30T13:17:02.214Z,20.4
2019-05-30T13:22:01.793Z,19.3
2019-05-30T13:27:02.182Z,18.3
2019-05-30T13:32:02.967Z,17.9
2019-05-30T13:37:01.472Z,16.9
2019-05-30T13:42:02.152Z,17.1
2019-05-30T13:47:02.899Z,17.2
2019-05-30T13:52:01.414Z,18.2
2019-05-30T13:57:02.014Z,18.8
2019-05-30T14:02:02.502Z,19.6
2019-05-30T14:07:02.616Z,19.6
2019-05-30T14:12:02.690Z,19.6
2019-05-30T14:17:02.777Z,18.8
2019-05-30T14:22:01.610Z,19.2
2019-05-30T14:27:01.861Z,19.1
2019-05-30T14:32:03.959Z,18.8
2019-05-30T14:37:02.756Z,18.9
2019-05-30T14:42:01.415Z,19.5
2019-05-30T14:47:01.474Z,19.1
2019-05-30T14:52:01.416Z,19.2
2019-05-30T14:57:01.530Z,19.7
2019-05-30T15:02:01.470Z,20.0
2019-05-30T15:07:01.534Z,20.2
2019-05-30T15:12:01.413Z,20.2
2019-05-30T15:22:01.411Z,20.4
2019-05-30T15:27:01.484Z,20.5
2019-05-30T15:37:01.447Z,20.7
2019-05-30T15:42:01.414Z,20.5
2019-05-30T15:52:01.400Z,20.5
2019-05-30T16:02:01.542Z,19.3
2019-05-30T16:07:01.473Z,18.9
2019-05-30T16:12:01.411Z,18.6
2019-05-30T16:17:02.447Z,18.2
2019-05-30T16:22:01.428Z,17.6
2019-05-30T16:27:01.478Z,17.3
2019-05-30T16:32:01.484Z,16.5
2019-05-30T16:37:01.472Z,15.9
2019-05-30T16:42:01.410Z,15.1
2019-05-30T16:47:01.539Z,15.1
2019-05-30T16:52:01.417Z,15.0
2019-05-30T16:57:01.541Z,15.0
2019-05-30T17:02:01.413Z,14.8
2019-05-30T17:07:01.475Z,14.5
2019-05-30T17:12:01.483Z,13.8
2019-05-30T17:22:01.500Z,13.6
2019-05-30T17:27:01.553Z,13.6
2019-05-30T17:32:01.419Z,14.0
2019-05-30T17:37:01.483Z,14.2
2019-05-30T17:47:01.525Z,14.0
2019-05-30T17:52:01.409Z,13.8
2019-05-30T17:57:01.472Z,13.2
2019-05-30T18:02:01.472Z,13.1
2019-05-30T18:07:01.533Z,12.6
2019-05-30T18:12:01.407Z,12.2
2019-05-30T18:17:01.495Z,11.6
2019-05-30T18:22:01.431Z,11.7
2019-05-30T18:27:01.454Z,11.8
2019-05-30T18:37:01.464Z,12.5
2019-05-30T18:42:01.419Z,12.5
2019-05-30T18:47:01.537Z,12.2
2019-05-30T18:52:01.421Z,12.0
2019-05-30T18:57:01.484Z,12.1
2019-05-30T19:02:01.413Z,11.4
2019-05-30T19:07:01.471Z,11.8
2019-05-30T19:12:01.441Z,12.0
2019-05-30T19:17:01.539Z,11.8
2019-05-30T19:22:01.411Z,12.0
2019-05-30T19:27:01.473Z,12.5
2019-05-30T19:42:01.477Z,13.3
2019-05-30T19:47:01.402Z,13.3
2019-05-30T19:52:01.412Z,13.8
2019-05-30T19:57:01.413Z,13.7
2019-05-30T20:02:01.405Z,14.1
2019-05-30T20:07:01.420Z,13.8
2019-05-30T20:12:09.268Z,13.9
2019-05-30T20:17:01.414Z,13.8
2019-05-30T20:22:01.413Z,13.8
2019-05-30T20:27:02.058Z,14.3
2019-05-30T20:32:01.418Z,14.6
2019-05-30T20:37:01.415Z,14.4
2019-05-30T20:43:06.475Z,14.3
2019-05-30T20:48:01.408Z,14.4
2019-05-30T20:53:01.534Z,14.0
2019-05-30T20:58:01.407Z,14.0
2019-05-30T21:03:01.544Z,14.3
2019-05-30T21:08:01.413Z,14.4
2019-05-30T21:13:01.480Z,14.6
2019-05-30T21:18:01.421Z,14.9
2019-05-30T21:23:01.507Z,14.4
2019-05-30T21:28:01.496Z,14.1
2019-05-30T21:33:01.896Z,13.7
2019-05-30T21:48:01.359Z,14.0
2019-05-30T21:53:01.542Z,14.3
2019-05-30T21:58:01.416Z,14.4
2019-05-30T22:03:01.541Z,14.4
2019-05-30T22:08:01.375Z,14.8
2019-05-30T22:18:01.841Z,14.4
2019-05-30T22:23:01.472Z,14.5
2019-05-30T22:28:01.417Z,14.7
2019-05-30T22:33:01.543Z,13.8
2019-05-30T22:38:01.418Z,13.4
2019-05-30T22:43:01.527Z,13.8
2019-05-30T22:48:01.432Z,14.0
2019-05-30T22:53:01.468Z,13.8
2019-05-30T22:58:01.409Z,14.1
2019-05-30T23:03:01.463Z,14.2
2019-05-30T23:08:01.409Z,14.4
2019-05-30T23:13:01.623Z,14.3
2019-05-30T23:18:01.414Z,14.2
2019-05-30T23:23:01.482Z,14.2
2019-05-30T23:28:01.421Z,14.6
2019-05-30T23:33:01.467Z,14.4
2019-05-30T23:38:01.408Z,14.5
2019-05-30T23:43:01.402Z,14.6
2019-05-30T23:48:01.407Z,14.8
2019-05-30T23:53:02.430Z,14.8
2019-05-30T23:58:01.414Z,15.4
